createdAt,value
2017-02-20T00:02:18.415Z,10.31
2017-02-20T00:04:41.867Z,10.21
2017-02-20T00:07:05.055Z,10.28
2017-02-20T00:09:28.409Z,10.12
2017-02-20T00:11:51.918Z,10.41
2017-02-20T00:14:15.311Z,10.12
2017-02-20T00:16:38.681Z,10.03
2017-02-20T00:19:02.062Z,10.12
2017-02-20T00:21:26.440Z,10.09
2017-02-20T00:23:49.431Z,10.06
2017-02-20T00:26:13.982Z,10.06
2017-02-20T00:28:37.362Z,9.85
2017-02-20T00:31:00.785Z,10.05
2017-02-20T00:33:24.347Z,10.21
2017-02-20T00:35:47.864Z,10.23
2017-02-20T00:38:11.448Z,10.36
2017-02-20T00:40:36.216Z,10.06
2017-02-20T00:43:00.655Z,10.03
2017-02-20T00:45:24.394Z,10.13
2017-02-20T00:47:48.131Z,10.15
2017-02-20T00:50:12.616Z,10.3
2017-02-20T00:52:36.155Z,10
2017-02-20T00:55:00.547Z,10
2017-02-20T00:57:23.934Z,10.13
2017-02-20T00:59:47.520Z,10.18
2017-02-20T01:02:11.825Z,9.99
2017-02-20T01:04:35.258Z,9.97
2017-02-20T01:06:59.262Z,9.92
2017-02-20T01:09:22.664Z,10.1
2017-02-20T01:11:46.142Z,10.12
2017-02-20T01:14:09.304Z,10.24
2017-02-20T01:16:32.803Z,10.13
2017-02-20T01:18:56.468Z,10.13
2017-02-20T01:21:20.131Z,10.12
2017-02-20T01:23:43.790Z,10.12
2017-02-20T01:26:06.907Z,9.99
2017-02-20T01:28:30.244Z,9.94
2017-02-20T01:30:53.764Z,9.91
2017-02-20T01:33:17.122Z,9.82
2017-02-20T01:35:40.612Z,9.95
2017-02-20T01:38:03.812Z,9.74
2017-02-20T01:40:27.241Z,9.84
2017-02-20T01:42:42.347Z,10.06
2017-02-20T01:45:05.777Z,10.06
2017-02-20T01:47:29.101Z,10
2017-02-20T01:49:52.391Z,9.7
2017-02-20T01:52:15.621Z,9.73
2017-02-20T01:54:39.971Z,9.84
2017-02-20T01:57:04.442Z,9.7
2017-02-20T01:59:27.739Z,9.66
2017-02-20T02:01:50.929Z,9.67
2017-02-20T02:04:14.307Z,9.69
2017-02-20T02:06:37.544Z,9.74
2017-02-20T02:09:00.824Z,9.67
2017-02-20T02:11:24.270Z,9.7
2017-02-20T02:13:47.589Z,9.91
2017-02-20T02:16:10.906Z,9.77
2017-02-20T02:18:34.419Z,10.03
2017-02-20T02:20:58.742Z,9.74
2017-02-20T02:23:01.150Z,9.88
2017-02-20T02:25:24.378Z,9.9
2017-02-20T02:27:26.757Z,10.15
2017-02-20T02:29:51.847Z,9.92
2017-02-20T02:32:16.253Z,9.81
2017-02-20T02:34:39.622Z,9.7
2017-02-20T02:36:55.736Z,9.76
2017-02-20T02:39:19.005Z,9.42
2017-02-20T02:41:42.573Z,9.7
2017-02-20T02:44:07.064Z,9.77
2017-02-20T02:46:30.638Z,9.73
2017-02-20T02:48:55.875Z,9.47
2017-02-20T02:51:20.428Z,9.58
2017-02-20T02:53:43.695Z,9.47
2017-02-20T02:56:08.152Z,9.52
2017-02-20T02:58:35.415Z,9.63
2017-02-20T03:00:59.754Z,9.74
2017-02-20T03:03:23.089Z,9.66
2017-02-20T03:05:47.586Z,9.73
2017-02-20T03:08:10.901Z,9.36
2017-02-20T03:10:35.276Z,9.49
2017-02-20T03:13:03.579Z,9.73
2017-02-20T03:15:27.197Z,9.69
2017-02-20T03:17:50.523Z,9.76
2017-02-20T03:20:14.794Z,9.55
2017-02-20T03:22:38.245Z,9.64
2017-02-20T03:25:01.547Z,9.52
2017-02-20T03:27:26.932Z,9.36
2017-02-20T03:29:51.302Z,9.64
2017-02-20T03:32:02.702Z,9.73
2017-02-20T03:34:28.114Z,9.85
2017-02-20T03:36:52.138Z,9.88
2017-02-20T03:39:15.319Z,9.74
2017-02-20T03:41:38.991Z,9.7
2017-02-20T03:44:02.667Z,9.62
2017-02-20T03:46:28.311Z,9.58
2017-02-20T03:48:53.172Z,9.63
2017-02-20T03:51:16.820Z,9.34
2017-02-20T03:53:47.578Z,9.3
2017-02-20T03:56:10.748Z,9.39
2017-02-20T03:58:34.400Z,9.81
2017-02-20T04:00:57.700Z,9.42
2017-02-20T04:03:22.073Z,9.4
2017-02-20T04:05:45.606Z,9.56
2017-02-20T04:08:09.275Z,9.58
2017-02-20T04:10:34.393Z,9.64
2017-02-20T04:13:01.002Z,9.85
2017-02-20T04:15:23.796Z,9.73
2017-02-20T04:17:46.950Z,9.73
2017-02-20T04:20:10.224Z,9.73
2017-02-20T04:22:33.656Z,9.88
2017-02-20T04:24:56.906Z,9.69
2017-02-20T04:27:20.226Z,9.37
2017-02-20T04:29:43.938Z,9.63
2017-02-20T04:32:07.249Z,9.56
2017-02-20T04:34:30.626Z,9.56
2017-02-20T04:36:53.915Z,9.31
2017-02-20T04:39:17.168Z,9.69
2017-02-20T04:41:40.668Z,9.63
2017-02-20T04:44:05.041Z,9.54
2017-02-20T04:46:28.339Z,9.51
2017-02-20T04:48:51.624Z,9.54
2017-02-20T04:51:14.930Z,9.4
2017-02-20T04:53:39.117Z,9.55
2017-02-20T04:56:02.451Z,9.22
2017-02-20T04:58:25.618Z,9.45
2017-02-20T05:00:49.313Z,9.26
2017-02-20T05:03:12.698Z,9.24
2017-02-20T05:05:36.575Z,9.24
2017-02-20T05:07:59.952Z,9.31
2017-02-20T05:10:23.402Z,9.16
2017-02-20T05:12:47.819Z,9.13
2017-02-20T05:15:11.744Z,9.18
2017-02-20T05:17:34.972Z,9.22
2017-02-20T05:19:58.364Z,9.05
2017-02-20T05:21:59.921Z,9.02
2017-02-20T05:24:23.299Z,9.03
2017-02-20T05:26:46.886Z,9.27
2017-02-20T05:29:11.620Z,9.22
2017-02-20T05:31:35.001Z,8.92
2017-02-20T05:33:58.512Z,9.13
2017-02-20T05:36:21.839Z,9.09
2017-02-20T05:38:45.103Z,9.11
2017-02-20T05:41:09.619Z,9.09
2017-02-20T05:43:21.114Z,9.12
2017-02-20T05:45:44.737Z,9
2017-02-20T05:48:08.497Z,8.97
2017-02-20T05:50:23.569Z,9.16
2017-02-20T05:52:46.940Z,9.26
2017-02-20T05:55:10.611Z,9.33
2017-02-20T05:57:34.088Z,9.26
2017-02-20T05:59:57.639Z,9.37
2017-02-20T06:02:21.037Z,9.21
2017-02-20T06:04:44.365Z,9.16
2017-02-20T06:07:07.709Z,9.03
2017-02-20T06:09:30.900Z,9.08
2017-02-20T06:11:54.169Z,8.99
2017-02-20T06:14:17.384Z,8.9
2017-02-20T06:16:40.922Z,8.96
2017-02-20T06:19:11.286Z,8.71
2017-02-20T06:21:35.062Z,8.68
2017-02-20T06:23:58.787Z,8.87
2017-02-20T06:26:22.178Z,9.19
2017-02-20T06:28:45.551Z,9.16
2017-02-20T06:31:09.021Z,8.92
2017-02-20T06:33:32.447Z,8.77
2017-02-20T06:35:55.978Z,8.75
2017-02-20T06:38:19.170Z,8.61
2017-02-20T06:40:43.610Z,8.81
2017-02-20T06:43:06.765Z,8.81
2017-02-20T06:45:30.120Z,8.6
2017-02-20T06:47:53.370Z,8.72
2017-02-20T06:50:16.522Z,8.66
2017-02-20T06:52:39.772Z,8.9
2017-02-20T06:54:50.376Z,8.89
2017-02-20T06:57:14.544Z,9.09
2017-02-20T06:59:38.049Z,8.87
2017-02-20T07:02:01.389Z,8.82
2017-02-20T07:04:24.671Z,8.96
2017-02-20T07:06:50.258Z,9.09
2017-02-20T07:09:13.709Z,8.89
2017-02-20T07:11:38.250Z,8.72
2017-02-20T07:14:01.397Z,9.09
2017-02-20T07:16:24.704Z,9.29
2017-02-20T07:18:50.176Z,9.42
2017-02-20T07:21:13.640Z,9.63
2017-02-20T07:23:44.904Z,9.26
2017-02-20T07:26:09.583Z,9.02
2017-02-20T07:28:32.526Z,8.96
2017-02-20T07:30:57.347Z,8.96
2017-02-20T07:33:21.941Z,9.19
2017-02-20T07:35:47.667Z,8.93
2017-02-20T07:38:18.041Z,8.86
2017-02-20T07:40:41.527Z,8.95
2017-02-20T07:43:05.592Z,9.21
2017-02-20T07:45:16.002Z,9.27
2017-02-20T07:47:39.293Z,9.18
2017-02-20T07:50:17.738Z,9.36
2017-02-20T07:52:41.986Z,9.54
2017-02-20T07:55:05.702Z,9.51
2017-02-20T07:57:29.135Z,9.66
2017-02-20T07:59:52.870Z,9.59
2017-02-20T08:02:16.504Z,9.77
2017-02-20T08:04:40.021Z,9.81
2017-02-20T08:07:05.387Z,10
2017-02-20T08:11:07.648Z,9.67
2017-02-20T08:13:35.905Z,9.8
2017-02-20T08:15:59.808Z,9.95
2017-02-20T08:18:23.004Z,10
2017-02-20T08:20:46.374Z,9.97
2017-02-20T08:23:09.875Z,9.95
2017-02-20T08:25:33.023Z,10.3
2017-02-20T08:27:56.346Z,10.23
2017-02-20T08:30:19.621Z,10.25
2017-02-20T08:32:42.832Z,9.85
2017-02-20T08:35:07.372Z,10.13
2017-02-20T08:37:37.272Z,10.23
2017-02-20T08:40:00.933Z,10.25
2017-02-20T08:42:24.706Z,10.13
2017-02-20T08:44:48.288Z,9.8
2017-02-20T08:47:12.855Z,9.99
2017-02-20T08:49:36.072Z,9.8
2017-02-20T08:52:00.094Z,9.66
2017-02-20T08:54:24.711Z,9.54
2017-02-20T08:56:48.467Z,9.15
2017-02-20T08:59:11.713Z,9.05
2017-02-20T09:01:36.353Z,9.36
2017-02-20T09:04:01.062Z,9.52
2017-02-20T09:06:16.895Z,9.27
2017-02-20T09:08:42.413Z,9.44
2017-02-20T09:11:08.347Z,9.52
2017-02-20T09:13:32.694Z,9.3
2017-02-20T09:15:56.400Z,9.27
2017-02-20T09:18:20.844Z,9.45
2017-02-20T09:20:45.454Z,9.3
2017-02-20T09:23:08.811Z,9.76
2017-02-20T09:25:32.242Z,9.59
2017-02-20T09:27:55.685Z,9.73
2017-02-20T09:30:12.824Z,9.54
2017-02-20T09:32:37.088Z,9.22
2017-02-20T09:35:00.330Z,9.44
2017-02-20T09:37:24.169Z,9.4
2017-02-20T09:39:50.811Z,9.54
2017-02-20T09:42:21.856Z,9.47
2017-02-20T09:44:46.429Z,9.44
2017-02-20T09:47:19.223Z,9.45
2017-02-20T09:49:45.961Z,9.54
2017-02-20T09:52:10.121Z,9.4
2017-02-20T09:54:33.312Z,9.42
2017-02-20T09:56:57.804Z,9.19
2017-02-20T09:59:12.884Z,9.4
2017-02-20T10:01:37.280Z,9.22
2017-02-20T10:04:01.159Z,9.58
2017-02-20T10:06:26.757Z,9.63
2017-02-20T10:08:48.343Z,9.9
2017-02-20T10:11:12.181Z,9.8
2017-02-20T10:13:35.663Z,9.72
2017-02-20T10:15:59.275Z,9.84
2017-02-20T10:18:23.962Z,10.02
2017-02-20T10:20:47.202Z,10.1
2017-02-20T10:23:11.146Z,9.84
2017-02-20T10:25:36.280Z,9.84
2017-02-20T10:27:46.003Z,9.37
2017-02-20T10:30:09.543Z,9.45
2017-02-20T10:32:34.030Z,9.39
2017-02-20T10:34:58.726Z,9.31
2017-02-20T10:37:22.588Z,9.42
2017-02-20T10:39:46.636Z,9.69
2017-02-20T10:42:11.199Z,9.29
2017-02-20T10:44:36.571Z,9.26
2017-02-20T10:47:00.010Z,9.59
2017-02-20T10:49:24.491Z,9.74
2017-02-20T10:51:48.078Z,9.59
2017-02-20T10:54:12.913Z,10.03
2017-02-20T10:56:36.088Z,10.21
2017-02-20T10:58:59.787Z,10.49
2017-02-20T11:01:24.664Z,10.2
2017-02-20T11:03:49.256Z,10.51
2017-02-20T11:06:12.627Z,11.07
2017-02-20T11:08:36.520Z,11.53
2017-02-20T11:11:01.044Z,11.78
2017-02-20T11:13:24.663Z,11.68
2017-02-20T11:15:35.675Z,11.37
2017-02-20T11:17:59.752Z,11.83
2017-02-20T11:20:23.663Z,12.61
2017-02-20T11:22:47.632Z,12.73
2017-02-20T11:25:11.664Z,12.4
2017-02-20T11:27:41.692Z,13.12
2017-02-20T11:30:05.300Z,13.45
2017-02-20T11:32:30.100Z,13.5
2017-02-20T11:34:54.590Z,13.27
2017-02-20T11:37:20.308Z,12.81
2017-02-20T11:39:50.710Z,12.45
2017-02-20T11:42:14.307Z,12.66
2017-02-20T11:44:38.846Z,12.55
2017-02-20T11:47:03.335Z,12.37
2017-02-20T11:49:29.096Z,12.36
2017-02-20T11:51:53.719Z,12.21
2017-02-20T11:54:24.337Z,12.53
2017-02-20T11:56:50.696Z,12.4
2017-02-20T11:59:15.243Z,12.12
2017-02-20T12:01:39.731Z,12.7
2017-02-20T12:03:41.867Z,12.07
2017-02-20T12:06:20.484Z,12.03
2017-02-20T12:08:44.964Z,12.17
2017-02-20T12:11:09.743Z,12.23
2017-02-20T12:13:34.371Z,12.14
2017-02-20T12:15:59.255Z,12.02
2017-02-20T12:18:25.313Z,12.1
2017-02-20T12:20:57.760Z,11.97
2017-02-20T12:23:22.492Z,12.35
2017-02-20T12:25:47.140Z,12.21
2017-02-20T12:28:10.590Z,12.25
2017-02-20T12:30:34.254Z,12.29
2017-02-20T12:32:57.978Z,11.95
2017-02-20T12:35:29.402Z,12.17
2017-02-20T12:37:52.919Z,12
2017-02-20T12:40:16.359Z,11.48
2017-02-20T12:42:40.199Z,11.65
2017-02-20T12:45:05.084Z,11.85
2017-02-20T12:47:35.760Z,11.62
2017-02-20T12:49:59.266Z,11.56
2017-02-20T12:52:22.668Z,11.7
2017-02-20T12:54:47.323Z,11.62
2017-02-20T12:57:12.258Z,11.65
2017-02-20T12:59:36.330Z,11.45
2017-02-20T13:02:06.243Z,11.68
2017-02-20T13:04:29.909Z,11.45
2017-02-20T13:06:51.816Z,11.63
2017-02-20T13:09:15.242Z,11.88
2017-02-20T13:11:39.018Z,11.81
2017-02-20T13:14:02.385Z,11.77
2017-02-20T13:16:33.788Z,12.08
2017-02-20T13:19:06.448Z,11.95
2017-02-20T13:21:31.520Z,11.68
2017-02-20T13:23:56.172Z,11.8
2017-02-20T13:26:20.882Z,11.95
2017-02-20T13:28:51.883Z,11.85
2017-02-20T13:31:16.010Z,11.73
2017-02-20T13:33:46.599Z,11.85
2017-02-20T13:36:12.357Z,11.62
2017-02-20T13:40:12.901Z,11.33
2017-02-20T13:44:12.555Z,11.45
2017-02-20T13:46:37.082Z,11.38
2017-02-20T13:49:09.026Z,11.58
2017-02-20T13:51:32.608Z,11.63
2017-02-20T13:53:56.047Z,11.71
2017-02-20T13:56:21.971Z,11.86
2017-02-20T13:58:47.216Z,11.7
2017-02-20T14:01:19.557Z,11.7
2017-02-20T14:03:51.004Z,11.68
2017-02-20T14:06:20.995Z,11.74
2017-02-20T14:08:45.095Z,11.89
2017-02-20T14:11:10.761Z,11.91
2017-02-20T14:12:48.022Z,11.83
2017-02-20T14:15:13.616Z,11.78
2017-02-20T14:17:37.962Z,11.93
2017-02-20T14:20:03.392Z,12.23
2017-02-20T14:22:28.271Z,11.89
2017-02-20T14:24:54.586Z,11.93
2017-02-20T14:27:19.377Z,11.63
2017-02-20T14:29:42.959Z,11.91
2017-02-20T14:32:13.385Z,11.65
2017-02-20T14:34:39.959Z,11.48
2017-02-20T14:37:11.034Z,11.51
2017-02-20T14:39:42.509Z,11.48
2017-02-20T14:42:06.031Z,11.59
2017-02-20T14:44:33.573Z,11.58
2017-02-20T14:46:56.914Z,11.78
2017-02-20T14:49:20.292Z,11.58
2017-02-20T14:51:43.613Z,11.33
2017-02-20T14:54:07.115Z,11.59
2017-02-20T14:56:30.388Z,11.45
2017-02-20T14:58:53.756Z,11.6
2017-02-20T15:01:17.139Z,11.53
2017-02-20T15:03:40.476Z,11.76
2017-02-20T15:06:03.823Z,11.83
2017-02-20T15:08:27.192Z,11.67
2017-02-20T15:10:50.463Z,11.68
2017-02-20T15:13:13.779Z,11.88
2017-02-20T15:15:37.168Z,11.67
2017-02-20T15:18:00.643Z,11.86
2017-02-20T15:20:24.005Z,11.55
2017-02-20T15:22:47.397Z,11.8
2017-02-20T15:25:10.790Z,11.76
2017-02-20T15:27:34.142Z,11.52
2017-02-20T15:29:35.881Z,11.48
2017-02-20T15:31:59.254Z,11.8
2017-02-20T15:34:22.695Z,11.4
2017-02-20T15:36:47.067Z,11.4
2017-02-20T15:39:10.542Z,11.56
2017-02-20T15:41:34.353Z,11.7
2017-02-20T15:43:57.844Z,11.6
2017-02-20T15:46:21.161Z,11.45
2017-02-20T15:48:44.507Z,11.33
2017-02-20T15:51:07.871Z,11.38
2017-02-20T15:53:31.232Z,11.58
2017-02-20T15:55:32.420Z,11.55
2017-02-20T15:57:38.981Z,11.99
2017-02-20T16:00:02.976Z,11.83
2017-02-20T16:02:26.359Z,11.35
2017-02-20T16:04:41.343Z,11.35
2017-02-20T16:07:14.278Z,11.48
2017-02-20T16:09:37.632Z,11.37
2017-02-20T16:12:01.000Z,11.4
2017-02-20T16:14:24.349Z,11.3
2017-02-20T16:16:47.691Z,11.34
2017-02-20T16:19:12.129Z,11.38
2017-02-20T16:21:35.485Z,11.67
2017-02-20T16:23:50.493Z,11.56
2017-02-20T16:26:13.817Z,11.49
2017-02-20T16:28:37.770Z,11.37
2017-02-20T16:31:01.091Z,11.48
2017-02-20T16:33:24.447Z,11.52
2017-02-20T16:35:47.810Z,11.58
2017-02-20T16:38:11.120Z,11.16
2017-02-20T16:40:20.783Z,11.34
2017-02-20T16:42:44.130Z,11.08
2017-02-20T16:45:07.439Z,11.15
2017-02-20T16:47:22.370Z,11.12
2017-02-20T16:49:23.506Z,11.34
2017-02-20T16:51:38.452Z,11.35
2017-02-20T16:54:01.732Z,11.3
2017-02-20T16:56:25.057Z,10.95
2017-02-20T16:58:40.992Z,11.15
2017-02-20T17:01:04.295Z,10.98
2017-02-20T17:03:27.611Z,11.13
2017-02-20T17:05:50.966Z,11.13
2017-02-20T17:08:14.316Z,10.82
2017-02-20T17:10:38.674Z,10.57
2017-02-20T17:13:02.062Z,10.92
2017-02-20T17:15:25.618Z,10.62
2017-02-20T17:17:48.969Z,10.67
2017-02-20T17:20:12.392Z,10.61
2017-02-20T17:22:35.671Z,10.62
2017-02-20T17:24:58.968Z,10.87
2017-02-20T17:27:22.236Z,10.62
2017-02-20T17:29:45.504Z,10.62
2017-02-20T17:32:08.761Z,10.24
2017-02-20T17:34:46.911Z,10.2
2017-02-20T17:37:10.422Z,10.27
2017-02-20T17:39:35.411Z,10.28
2017-02-20T17:42:00.044Z,10.28
2017-02-20T17:44:23.475Z,10.36
2017-02-20T17:46:46.914Z,10.28
2017-02-20T17:49:10.508Z,10.41
2017-02-20T17:51:35.545Z,10.38
2017-02-20T17:53:59.257Z,10.27
2017-02-20T17:56:24.676Z,10.24
2017-02-20T17:58:48.337Z,10.05
2017-02-20T18:01:19.108Z,10.15
2017-02-20T18:03:21.451Z,9.92
2017-02-20T18:05:44.810Z,10.03
2017-02-20T18:08:08.180Z,10.15
2017-02-20T18:10:31.687Z,10.05
2017-02-20T18:12:55.978Z,9.94
2017-02-20T18:15:19.315Z,9.94
2017-02-20T18:17:42.684Z,9.9
2017-02-20T18:20:06.005Z,10.13
2017-02-20T18:22:29.285Z,9.99
2017-02-20T18:24:52.629Z,9.76
2017-02-20T18:27:15.990Z,9.92
2017-02-20T18:29:41.028Z,9.7
2017-02-20T18:32:06.040Z,9.63
2017-02-20T18:34:29.316Z,9.66
2017-02-20T18:36:52.623Z,9.63
2017-02-20T18:39:16.382Z,9.59
2017-02-20T18:41:39.681Z,9.62
2017-02-20T18:44:03.050Z,9.73
2017-02-20T18:46:26.311Z,9.54
2017-02-20T18:48:50.684Z,9.52
2017-02-20T18:51:14.142Z,9.37
2017-02-20T18:53:37.930Z,9.48
2017-02-20T18:56:01.195Z,9.51
2017-02-20T18:58:24.570Z,9.51
2017-02-20T19:00:48.948Z,9.37
2017-02-20T19:03:12.260Z,9.4
2017-02-20T19:05:35.486Z,9.51
2017-02-20T19:07:58.784Z,9.39
2017-02-20T19:10:23.137Z,9.36
2017-02-20T19:12:46.458Z,9.36
2017-02-20T19:15:09.880Z,9.44
2017-02-20T19:17:33.067Z,9.36
2017-02-20T19:19:56.328Z,9.37
2017-02-20T19:22:21.586Z,9.3
2017-02-20T19:24:55.156Z,9.45
2017-02-20T19:27:18.444Z,9.29
2017-02-20T19:29:41.684Z,9.33
2017-02-20T19:32:07.123Z,9.31
2017-02-20T19:36:07.217Z,9.33
2017-02-20T19:38:31.596Z,9.26
2017-02-20T19:40:54.981Z,9.27
2017-02-20T19:44:54.550Z,9.51
2017-02-20T19:47:18.438Z,9.37
2017-02-20T19:49:48.319Z,9.39
2017-02-20T19:53:50.005Z,9.39
2017-02-20T19:56:14.623Z,9.22
2017-02-20T19:58:53.890Z,9.31
2017-02-20T20:01:17.806Z,9.13
2017-02-20T20:03:42.276Z,9.22
2017-02-20T20:06:23.404Z,9.31
2017-02-20T20:08:46.895Z,9.29
2017-02-20T20:11:12.677Z,9.66
2017-02-20T20:13:38.418Z,9.45
2017-02-20T20:16:16.446Z,9.31
2017-02-20T20:18:40.112Z,9.52
2017-02-20T20:21:09.932Z,9.34
2017-02-20T20:23:33.281Z,9.27
2017-02-20T20:27:33.654Z,9.51
2017-02-20T20:29:57.396Z,9.62
2017-02-20T20:32:21.167Z,9.58
2017-02-20T20:34:44.495Z,9.49
2017-02-20T20:37:10.039Z,9.54
2017-02-20T20:39:33.801Z,9.4
2017-02-20T20:41:57.292Z,9.47
2017-02-20T20:46:50.375Z,9.58
2017-02-20T20:49:15.056Z,9.55
2017-02-20T20:51:39.012Z,9.7
2017-02-20T20:54:03.902Z,9.64
2017-02-20T20:56:27.413Z,9.73
2017-02-20T20:58:51.453Z,9.7
2017-02-20T21:01:15.226Z,9.77
2017-02-20T21:03:39.438Z,9.84
2017-02-20T21:06:03.034Z,10.02
2017-02-20T21:08:04.627Z,9.87
2017-02-20T21:10:34.574Z,9.81
2017-02-20T21:12:57.970Z,9.82
2017-02-20T21:15:21.461Z,9.84
2017-02-20T21:17:44.728Z,9.9
2017-02-20T21:20:11.249Z,10
2017-02-20T21:22:35.444Z,9.99
2017-02-20T21:25:01.026Z,9.94
2017-02-20T21:27:24.986Z,9.91
2017-02-20T21:29:50.028Z,9.88
2017-02-20T21:32:14.633Z,9.9
2017-02-20T21:34:38.595Z,9.92
2017-02-20T21:37:02.444Z,9.8
2017-02-20T21:39:26.526Z,9.9
2017-02-20T21:41:49.915Z,9.81
2017-02-20T21:44:13.373Z,9.76
2017-02-20T21:46:36.860Z,9.92
2017-02-20T21:49:00.336Z,9.88
2017-02-20T21:51:30.741Z,9.84
2017-02-20T21:53:54.687Z,9.67
2017-02-20T21:56:18.674Z,9.99
2017-02-20T21:58:42.325Z,10
2017-02-20T22:01:06.828Z,10
2017-02-20T22:03:30.489Z,10.09
2017-02-20T22:05:55.176Z,9.82
2017-02-20T22:08:18.957Z,9.67
2017-02-20T22:10:35.454Z,9.8
2017-02-20T22:13:00.282Z,9.97
2017-02-20T22:15:24.959Z,10.03
2017-02-20T22:17:49.849Z,10.05
2017-02-20T22:20:14.027Z,9.85
2017-02-20T22:22:38.415Z,9.74
2017-02-20T22:25:02.898Z,9.84
2017-02-20T22:27:27.960Z,9.94
2017-02-20T22:29:12.061Z,9.95
2017-02-20T22:31:31.089Z,9.95
2017-02-20T22:33:55.180Z,9.84
2017-02-20T22:36:27.214Z,9.88
2017-02-20T22:38:55.214Z,9.73
2017-02-20T22:41:28.685Z,9.82
2017-02-20T22:43:53.053Z,9.87
2017-02-20T22:45:46.143Z,9.85
2017-02-20T22:48:10.443Z,9.91
2017-02-20T22:50:33.999Z,9.84
2017-02-20T22:52:57.484Z,10.09
2017-02-20T22:55:21.092Z,10.05
2017-02-20T22:57:44.649Z,9.99
2017-02-20T23:00:09.640Z,9.99
2017-02-20T23:02:33.011Z,10.02
2017-02-20T23:04:56.610Z,10.03
2017-02-20T23:07:20.094Z,10.2
2017-02-20T23:09:44.516Z,10.12
2017-02-20T23:12:08.107Z,10.34
2017-02-20T23:14:32.368Z,10.07
2017-02-20T23:16:56.501Z,10.1
2017-02-20T23:19:20.339Z,10.06
2017-02-20T23:21:43.692Z,10.38
2017-02-20T23:24:07.201Z,10.24
2017-02-20T23:26:30.437Z,10.28
2017-02-20T23:28:53.886Z,10.28
2017-02-20T23:31:17.161Z,10.39
2017-02-20T23:33:40.406Z,10.34
2017-02-20T23:36:04.317Z,10.3
2017-02-20T23:38:28.709Z,10.41
2017-02-20T23:40:51.985Z,10.25
2017-02-20T23:43:16.561Z,10.3
2017-02-20T23:45:40.841Z,10.25
2017-02-20T23:48:05.123Z,10.36
2017-02-20T23:50:29.521Z,10.33
2017-02-20T23:52:54.141Z,10.43
2017-02-20T23:55:17.567Z,10.24
2017-02-20T23:57:41.050Z,10.48
